Time;durP1;ratioP1;P1;durP2;ratioP2;P2;SDS_P1;SDS_P2;PMS_P1;PMS_P2;Temp;Humidity;BMP_temperature;BMP_pressure;BME280_temperature;BME280_humidity;BME280_pressure;Samples;Min_cycle;Max_cycle;Signal;HPM_P1;HPM_P2
2022/07/02 00:00:02;;;;;;;16.60;5.20;;;;;;;13.34;100.00;102008.25;5052998;28;20388;-63
2022/07/02 00:02:32;;;;;;;16.67;5.20;;;;;;;13.28;100.00;102011.75;5053303;28;20029;-63
2022/07/02 00:05:04;;;;;;;17.25;5.03;;;;;;;13.26;100.00;102008.19;5052751;28;20036;-62
2022/07/02 00:07:30;;;;;;;18.45;5.60;;;;;;;13.22;100.00;102004.63;5052816;28;20040;-62
2022/07/02 00:09:57;;;;;;;15.80;5.07;;;;;;;13.16;100.00;102009.81;5053288;28;20100;-63
2022/07/02 00:12:24;;;;;;;17.17;5.13;;;;;;;13.17;100.00;102006.31;5052757;28;20029;-63
2022/07/02 00:14:54;;;;;;;15.82;5.10;;;;;;;13.17;100.00;102008.97;5052639;28;20107;-63
2022/07/02 00:17:21;;;;;;;17.38;5.40;;;;;;;13.00;100.00;101999.91;5052868;28;20029;-63
2022/07/02 00:19:47;;;;;;;17.88;5.45;;;;;;;12.90;100.00;102004.19;5051597;28;20085;-62
2022/07/02 00:22:14;;;;;;;17.30;5.70;;;;;;;12.76;100.00;102001.38;5052833;28;20067;-63
2022/07/02 00:24:41;;;;;;;18.02;5.65;;;;;;;12.79;100.00;102006.72;5052989;28;20376;-62
2022/07/02 00:27:09;;;;;;;17.48;5.65;;;;;;;12.78;100.00;101996.97;5052072;28;20490;-63
2022/07/02 00:29:49;;;;;;;18.08;5.72;;;;;;;12.79;100.00;102001.41;5048427;28;20032;-62
2022/07/02 00:32:15;;;;;;;19.23;5.65;;;;;;;12.72;100.00;101999.53;5049978;28;20557;-62
2022/07/02 00:34:43;;;;;;;17.80;5.90;;;;;;;12.59;100.00;102008.19;5052619;28;20064;-63
2022/07/02 00:37:10;;;;;;;17.02;5.72;;;;;;;12.53;100.00;102004.56;5052386;28;20491;-63
2022/07/02 00:39:36;;;;;;;17.38;5.80;;;;;;;12.46;100.00;102008.00;5052365;28;20029;-62
2022/07/02 00:42:04;;;;;;;16.90;5.65;;;;;;;12.38;100.00;102009.66;5052738;28;20044;-63
2022/07/02 00:44:30;;;;;;;16.23;5.70;;;;;;;12.28;100.00;102007.75;5052347;28;20479;-63
2022/07/02 00:47:01;;;;;;;17.67;5.47;;;;;;;12.25;100.00;102018.31;5052285;28;20028;-63
2022/07/02 00:49:28;;;;;;;18.08;5.80;;;;;;;12.20;100.00;102010.25;5052762;28;20025;-62
2022/07/02 00:51:53;;;;;;;16.30;5.30;;;;;;;12.12;100.00;102007.47;5052109;28;20044;-63
2022/07/02 00:54:18;;;;;;;16.23;5.85;;;;;;;12.13;100.00;102000.41;5052169;28;20082;-63
2022/07/02 00:56:45;;;;;;;17.42;5.90;;;;;;;12.13;100.00;102003.97;5052204;28;20037;-62
2022/07/02 00:59:11;;;;;;;17.40;5.95;;;;;;;12.06;100.00;102004.75;5052185;28;20472;-62
2022/07/02 01:01:36;;;;;;;19.08;5.57;;;;;;;12.02;100.00;102001.13;5052176;28;20075;-63
2022/07/02 01:04:03;;;;;;;17.48;5.50;;;;;;;12.04;100.00;102003.81;5052300;28;20033;-63
2022/07/02 01:06:31;;;;;;;17.05;5.60;;;;;;;11.94;100.00;102002.78;5052383;28;20104;-62
2022/07/02 01:11:45;;;;;;;16.77;5.70;;;;;;;11.95;100.00;102003.66;5049780;28;20043;-62
2022/07/02 01:14:11;;;;;;;17.63;6.10;;;;;;;11.98;100.00;101993.97;5052196;28;20098;-63
2022/07/02 01:16:36;;;;;;;18.77;5.90;;;;;;;12.02;100.00;101994.94;5051936;28;20032;-62
2022/07/02 01:19:03;;;;;;;17.23;5.53;;;;;;;11.99;100.00;101989.59;5052128;28;20029;-63
2022/07/02 01:21:28;;;;;;;16.77;5.90;;;;;;;11.99;100.00;101997.56;5052216;28;20377;-62
2022/07/02 01:23:53;;;;;;;16.48;5.80;;;;;;;12.04;100.00;101993.19;5051749;28;20029;-64
2022/07/02 01:26:19;;;;;;;17.85;5.55;;;;;;;11.96;100.00;101992.19;5051884;28;20029;-65
2022/07/02 01:28:44;;;;;;;18.30;5.95;;;;;;;11.92;100.00;101992.97;5052079;28;20028;-64
2022/07/02 01:31:10;;;;;;;16.77;5.78;;;;;;;11.85;100.00;101992.88;5051972;28;20032;-67
2022/07/02 01:33:35;;;;;;;17.48;5.70;;;;;;;11.75;100.00;101990.03;5050879;28;20033;-65
2022/07/02 01:36:00;;;;;;;16.92;5.50;;;;;;;11.70;100.00;101995.25;5050809;28;20384;-64
2022/07/02 01:38:26;;;;;;;17.20;5.65;;;;;;;11.69;100.00;101997.00;5053690;28;20024;-66
2022/07/02 01:40:51;;;;;;;17.17;5.80;;;;;;;11.64;100.00;102003.97;5055867;28;20083;-63
2022/07/02 01:43:16;;;;;;;18.35;5.75;;;;;;;11.62;100.00;102002.16;5055591;28;20057;-63
2022/07/02 01:45:42;;;;;;;15.23;5.35;;;;;;;11.60;100.00;101999.47;5055647;28;20484;-65
2022/07/02 01:48:07;;;;;;;16.08;5.70;;;;;;;11.59;100.00;102005.66;5055776;28;20419;-65
2022/07/02 01:50:35;;;;;;;15.63;5.25;;;;;;;11.61;100.00;102003.03;5055570;28;20028;-65
2022/07/02 01:53:01;;;;;;;15.68;5.55;;;;;;;11.62;100.00;102003.06;5055663;28;20435;-63
2022/07/02 01:55:26;;;;;;;18.35;5.70;;;;;;;11.62;100.00;101996.84;5055722;28;20044;-67
2022/07/02 01:57:52;;;;;;;16.10;5.70;;;;;;;11.60;100.00;102002.13;5055200;28;20533;-63
2022/07/02 02:00:17;;;;;;;19.45;5.82;;;;;;;11.55;100.00;102002.91;5055371;28;20112;-66
2022/07/02 02:02:43;;;;;;;18.60;5.78;;;;;;;11.47;100.00;102001.00;5055406;28;20064;-64
2022/07/02 02:05:08;;;;;;;15.55;5.50;;;;;;;11.52;100.00;102004.63;5055154;28;20052;-65
2022/07/02 02:07:33;;;;;;;15.90;5.55;;;;;;;11.55;100.00;101992.31;5055389;28;20452;-68
2022/07/02 02:09:59;;;;;;;17.80;5.78;;;;;;;11.48;100.00;101997.50;5055191;28;20063;-64
2022/07/02 02:12:24;;;;;;;16.98;5.68;;;;;;;11.44;100.00;101998.28;5055163;28;20025;-64
2022/07/02 02:14:49;;;;;;;18.25;5.60;;;;;;;11.43;100.00;101996.53;5054985;28;20486;-67
2022/07/02 02:17:15;;;;;;;16.90;6.00;;;;;;;11.47;100.00;101995.69;5055106;28;20036;-66
2022/07/02 02:19:40;;;;;;;17.25;5.95;;;;;;;11.54;100.00;101990.53;5054936;28;20029;-64
2022/07/02 02:22:06;;;;;;;17.50;5.72;;;;;;;11.54;100.00;101995.84;5055063;28;20036;-64
2022/07/02 02:24:31;;;;;;;20.15;6.05;;;;;;;11.52;100.00;101993.16;5053687;28;20036;-68
2022/07/02 02:26:58;;;;;;;17.23;5.90;;;;;;;11.59;100.00;101994.16;5054877;28;20103;-66
2022/07/02 02:29:23;;;;;;;16.25;5.88;;;;;;;11.62;100.00;101994.19;5054969;28;20029;-65
2022/07/02 02:31:49;;;;;;;18.48;5.95;;;;;;;11.68;100.00;101992.56;5054771;28;20543;-66
2022/07/02 02:34:14;;;;;;;17.35;5.75;;;;;;;11.84;100.00;102001.69;5054604;28;20048;-64
2022/07/02 02:36:39;;;;;;;17.55;5.88;;;;;;;11.93;100.00;102000.97;5054986;28;20112;-65
2022/07/02 02:39:05;;;;;;;17.13;5.50;;;;;;;12.02;100.00;101998.47;5050762;28;20360;-68
2022/07/02 02:41:30;;;;;;;18.45;5.70;;;;;;;12.05;100.00;101995.00;5054370;28;20017;-65
2022/07/02 02:43:55;;;;;;;16.52;5.78;;;;;;;12.06;100.00;101996.78;5054583;28;20029;-65
2022/07/02 02:46:21;;;;;;;19.23;6.10;;;;;;;12.16;100.00;101997.84;5054453;28;20104;-69
2022/07/02 02:48:46;;;;;;;16.48;5.70;;;;;;;12.26;100.00;101993.56;5054001;28;20464;-67
2022/07/02 02:51:14;;;;;;;16.35;5.70;;;;;;;12.31;100.00;101995.41;5054270;28;20041;-66
2022/07/02 02:53:42;;;;;;;17.63;5.72;;;;;;;12.41;100.00;101995.53;5054500;28;20032;-63
2022/07/02 02:56:08;;;;;;;17.10;5.82;;;;;;;12.47;100.00;102007.16;5054133;28;20029;-66
2022/07/02 02:58:33;;;;;;;18.92;5.88;;;;;;;12.48;100.00;101998.31;5054251;28;20025;-65
2022/07/02 03:00:58;;;;;;;17.83;5.80;;;;;;;12.44;100.00;102004.44;5054020;28;20422;-64
2022/07/02 03:03:24;;;;;;;19.58;5.90;;;;;;;12.41;100.00;102006.16;5054322;28;20056;-67
2022/07/02 03:05:49;;;;;;;17.10;5.55;;;;;;;12.31;100.00;102006.00;5054541;28;20075;-65
2022/07/02 03:08:15;;;;;;;17.83;5.90;;;;;;;12.21;100.00;101997.00;5054289;28;20116;-65
2022/07/02 03:10:40;;;;;;;17.15;5.70;;;;;;;12.13;100.00;102001.31;5054144;28;20049;-66
2022/07/02 03:13:05;;;;;;;17.50;5.68;;;;;;;12.09;100.00;102006.56;5053738;28;20056;-63
2022/07/02 03:15:30;;;;;;;18.33;5.95;;;;;;;12.01;100.00;102001.09;5053916;28;20032;-66
2022/07/02 03:17:56;;;;;;;18.48;6.25;;;;;;;11.98;100.00;102007.25;5053839;28;20021;-66
2022/07/02 03:20:21;;;;;;;18.27;5.97;;;;;;;11.91;100.00;102023.91;5053966;28;20017;-66
2022/07/02 03:22:46;;;;;;;18.90;6.30;;;;;;;11.88;100.00;102022.94;5053648;28;20021;-66
2022/07/02 03:25:12;;;;;;;18.98;6.00;;;;;;;11.91;100.00;102013.28;5053733;28;20041;-67
2022/07/02 03:27:38;;;;;;;18.42;6.05;;;;;;;11.96;100.00;102014.28;5053738;28;20067;-64
2022/07/02 03:30:05;;;;;;;18.38;6.10;;;;;;;11.96;100.00;102021.34;5053367;28;20048;-68
2022/07/02 03:32:31;;;;;;;18.15;6.30;;;;;;;11.96;100.00;102019.59;5053560;28;20119;-67
2022/07/02 03:34:56;;;;;;;19.38;6.00;;;;;;;12.06;100.00;102025.03;5053417;28;20116;-68
2022/07/02 03:37:25;;;;;;;19.23;5.97;;;;;;;12.13;100.00;102030.47;5053359;28;20024;-63
2022/07/02 03:39:51;;;;;;;18.00;6.00;;;;;;;12.18;100.00;102023.47;5053578;28;20029;-63
2022/07/02 03:42:16;;;;;;;18.45;6.07;;;;;;;12.29;100.00;102039.56;5053317;28;20024;-64
2022/07/02 03:44:41;;;;;;;16.83;5.45;;;;;;;12.30;100.00;102030.72;5053085;28;20540;-65
2022/07/02 03:47:06;;;;;;;16.20;5.88;;;;;;;12.32;100.00;102036.06;5053743;28;20033;-63
2022/07/02 03:49:32;;;;;;;17.98;5.97;;;;;;;12.29;100.00;102036.00;5053522;28;20029;-62
2022/07/02 03:51:58;;;;;;;18.75;6.05;;;;;;;12.26;100.00;102035.97;5053066;28;20400;-64
2022/07/02 03:54:23;;;;;;;19.05;6.10;;;;;;;12.26;100.00;102030.66;5053313;28;20029;-62
2022/07/02 03:56:48;;;;;;;18.65;6.18;;;;;;;12.26;100.00;102038.63;5052867;28;20025;-62
2022/07/02 03:59:14;;;;;;;18.90;5.90;;;;;;;12.29;100.00;102036.94;5053175;28;20033;-63
2022/07/02 04:01:39;;;;;;;15.52;5.18;;;;;;;12.37;100.00;102039.69;5052627;28;20028;-63
2022/07/02 04:04:04;;;;;;;18.33;5.65;;;;;;;12.47;100.00;102033.66;5053062;28;20025;-62
2022/07/02 04:06:29;;;;;;;18.17;5.38;;;;;;;12.54;100.00;102037.31;5053011;28;20534;-62
2022/07/02 04:08:55;;;;;;;17.45;5.38;;;;;;;12.60;100.00;102036.53;5052938;28;20047;-63
2022/07/02 04:11:20;;;;;;;18.00;5.50;;;;;;;12.58;100.00;102041.75;5052856;28;20057;-62
2022/07/02 04:13:45;;;;;;;18.25;5.30;;;;;;;12.58;100.00;102044.41;5053251;28;20075;-63
2022/07/02 04:16:11;;;;;;;17.55;5.22;;;;;;;12.50;100.00;102039.00;5052558;28;20102;-63
2022/07/02 04:18:36;;;;;;;17.25;5.28;;;;;;;12.48;100.00;102035.47;5052739;28;20052;-63
2022/07/02 04:21:01;;;;;;;17.55;5.40;;;;;;;12.46;100.00;102039.81;5052894;28;20056;-62
2022/07/02 04:23:27;;;;;;;18.55;5.40;;;;;;;12.50;100.00;102040.78;5052552;28;20436;-62
2022/07/02 04:25:52;;;;;;;18.67;5.68;;;;;;;12.52;100.00;102047.00;5052607;28;20039;-65
2022/07/02 04:28:17;;;;;;;16.80;5.50;;;;;;;12.56;100.00;102043.53;5052734;28;20027;-63
2022/07/02 04:30:43;;;;;;;19.70;5.43;;;;;;;12.62;100.00;102042.72;5052470;28;20468;-63
2022/07/02 04:33:08;;;;;;;18.00;5.72;;;;;;;12.69;100.00;102037.53;5052660;28;20064;-62
2022/07/02 04:35:33;;;;;;;16.42;5.60;;;;;;;12.76;100.00;102040.28;5052403;28;20032;-62
2022/07/02 04:37:59;;;;;;;19.02;5.68;;;;;;;12.84;100.00;102041.25;5052575;28;20056;-62
2022/07/02 04:40:24;;;;;;;16.65;5.60;;;;;;;12.92;100.00;102044.94;5052762;28;20372;-62
2022/07/02 04:42:49;;;;;;;18.40;5.50;;;;;;;13.00;100.00;102045.91;5052616;28;20028;-62
2022/07/02 04:45:15;;;;;;;16.85;5.40;;;;;;;13.03;100.00;102037.09;5052418;28;20067;-64
2022/07/02 04:47:40;;;;;;;16.30;5.32;;;;;;;13.11;100.00;102040.75;5052419;28;20075;-66
2022/07/02 04:50:06;;;;;;;17.63;5.40;;;;;;;13.17;100.00;102035.50;5052329;28;20025;-63
2022/07/02 04:52:31;;;;;;;16.40;4.97;;;;;;;13.14;100.00;102027.50;5051163;28;20068;-67
2022/07/02 04:54:57;;;;;;;19.77;5.53;;;;;;;13.13;100.00;102033.69;5052644;28;20090;-65
2022/07/02 04:57:22;;;;;;;16.60;5.10;;;;;;;13.15;100.00;102031.97;5052192;28;20429;-66
2022/07/02 04:59:47;;;;;;;17.90;5.57;;;;;;;13.16;100.00;102041.69;5052165;28;20527;-65
2022/07/02 05:02:13;;;;;;;18.25;5.10;;;;;;;13.21;100.00;102047.97;5052600;28;20364;-65
2022/07/02 05:04:39;;;;;;;15.35;4.70;;;;;;;13.25;100.00;102039.16;5052204;28;20487;-65
2022/07/02 05:07:04;;;;;;;17.92;5.50;;;;;;;13.29;100.00;102040.06;5052317;28;20472;-67
2022/07/02 05:09:30;;;;;;;16.00;4.88;;;;;;;13.34;100.00;102038.41;5052453;28;20104;-68
2022/07/02 05:11:55;;;;;;;17.50;4.82;;;;;;;13.41;100.00;102040.28;5053408;28;20025;-64
2022/07/02 05:14:21;;;;;;;18.05;5.20;;;;;;;13.47;100.00;102038.53;5056361;28;20031;-67
2022/07/02 05:16:46;;;;;;;17.27;4.78;;;;;;;13.52;100.00;102044.81;5055934;28;20464;-67
2022/07/02 05:19:11;;;;;;;17.25;5.05;;;;;;;13.57;100.00;102046.66;5056139;28;20048;-63
2022/07/02 05:21:37;;;;;;;16.23;4.60;;;;;;;13.62;100.00;102043.16;5056509;28;20031;-63
2022/07/02 05:24:03;;;;;;;17.13;4.85;;;;;;;13.67;100.00;102047.63;5056110;28;20036;-63
2022/07/02 05:26:29;;;;;;;17.30;5.22;;;;;;;13.64;100.00;102039.63;5055965;28;20070;-63
2022/07/02 05:28:54;;;;;;;16.05;5.10;;;;;;;13.61;100.00;102036.94;5056024;28;20029;-68
2022/07/02 05:31:20;;;;;;;16.08;4.85;;;;;;;13.60;100.00;102036.06;5055804;28;20112;-68
2022/07/02 05:33:45;;;;;;;16.20;4.50;;;;;;;13.66;100.00;102039.63;5055698;28;20021;-67
2022/07/02 05:36:11;;;;;;;14.77;4.30;;;;;;;13.77;100.00;102048.63;5055909;28;20100;-64
2022/07/02 05:38:36;;;;;;;18.05;4.43;;;;;;;13.84;100.00;102049.59;5055753;28;20086;-68
2022/07/02 05:41:02;;;;;;;16.17;4.80;;;;;;;13.89;100.00;102051.41;5055777;28;20120;-66
2022/07/02 05:43:27;;;;;;;17.10;4.15;;;;;;;14.00;100.00;102050.63;5055795;28;20025;-66
2022/07/02 05:45:53;;;;;;;14.60;4.20;;;;;;;14.07;100.00;102052.47;5055576;28;20029;-65
2022/07/02 05:48:18;;;;;;;13.05;3.88;;;;;;;14.15;100.00;102056.06;5055804;28;20033;-64
2022/07/02 05:50:43;;;;;;;13.13;3.90;;;;;;;14.23;100.00;102059.69;5054934;28;20124;-68
2022/07/02 05:53:09;;;;;;;15.63;3.90;;;;;;;14.28;100.00;102057.97;5055650;28;20037;-67
2022/07/02 05:55:34;;;;;;;12.23;3.72;;;;;;;14.35;100.00;102058.00;5055507;28;20044;-69
2022/07/02 05:57:59;;;;;;;12.73;3.60;;;;;;;14.41;100.00;102066.03;5055367;28;20029;-68
2022/07/02 06:00:25;;;;;;;14.18;3.70;;;;;;;14.45;100.00;102063.41;5055187;28;20017;-63
2022/07/02 06:02:51;;;;;;;14.20;3.90;;;;;;;14.52;100.00;102059.03;5055700;28;20068;-68
2022/07/02 06:08:00;;;;;;;14.23;3.70;;;;;;;14.62;100.00;102058.25;5055284;28;20559;-68
2022/07/02 06:10:26;;;;;;;13.40;3.38;;;;;;;14.66;100.00;102059.16;5055422;28;20049;-65
2022/07/02 06:12:52;;;;;;;13.43;3.58;;;;;;;14.73;100.00;102063.63;5055512;28;20025;-64
2022/07/02 06:15:19;;;;;;;13.80;3.70;;;;;;;14.80;100.00;102067.22;5054905;28;20044;-63
2022/07/02 06:17:45;;;;;;;15.23;3.40;;;;;;;14.86;100.00;102075.25;5054826;28;20029;-62
2022/07/02 06:20:12;;;;;;;14.43;3.70;;;;;;;14.96;100.00;102068.22;5055217;28;20434;-64
2022/07/02 06:22:37;;;;;;;14.25;3.72;;;;;;;15.12;100.00;102058.53;5050854;28;20025;-62
2022/07/02 06:25:04;;;;;;;12.70;3.20;;;;;;;15.33;100.00;102065.72;5054302;28;20422;-64
2022/07/02 06:27:33;;;;;;;11.48;3.40;;;;;;;15.58;100.00;102064.03;5053514;28;20128;-63
2022/07/02 06:29:59;;;;;;;12.65;3.30;;;;;;;15.88;100.00;102061.47;5054739;28;20021;-62
2022/07/02 06:32:24;;;;;;;10.73;3.00;;;;;;;16.17;100.00;102064.16;5054596;28;20135;-63
2022/07/02 06:34:50;;;;;;;12.05;2.90;;;;;;;16.39;100.00;102065.03;5054722;28;20028;-62
2022/07/02 06:37:15;;;;;;;11.50;2.70;;;;;;;16.45;100.00;102066.81;5054482;28;20105;-62
2022/07/02 06:39:40;;;;;;;9.15;2.67;;;;;;;16.42;100.00;102072.16;5054625;28;20025;-62
2022/07/02 06:42:22;;;;;;;10.07;2.67;;;;;;;16.25;100.00;102064.16;5054325;28;20408;-64
2022/07/02 06:44:49;;;;;;;8.82;2.45;;;;;;;16.06;100.00;102068.59;5052025;28;20388;-64
2022/07/02 06:47:15;;;;;;;12.38;2.70;;;;;;;16.01;100.00;102071.25;5054271;28;20032;-62
2022/07/02 06:49:41;;;;;;;10.13;2.85;;;;;;;16.09;100.00;102074.84;5054639;28;20056;-63
2022/07/02 06:52:08;;;;;;;7.72;2.60;;;;;;;16.20;99.12;102073.03;5054085;28;20049;-62
2022/07/02 06:54:33;;;;;;;8.90;2.50;;;;;;;16.21;97.80;102066.81;5045655;28;20404;-62
2022/07/02 06:56:59;;;;;;;9.60;2.60;;;;;;;16.24;100.00;102059.69;5043448;28;20082;-63
2022/07/02 06:59:24;;;;;;;8.52;2.30;;;;;;;16.22;92.39;102073.03;5054020;28;20029;-62
2022/07/02 07:01:50;;;;;;;8.10;2.35;;;;;;;16.18;97.49;102063.28;5054256;28;20017;-63
2022/07/02 07:04:15;;;;;;;8.85;2.30;;;;;;;16.14;91.86;102066.84;5054065;28;20053;-63
2022/07/02 07:06:46;;;;;;;8.45;2.30;;;;;;;16.09;91.70;102064.16;5053818;28;20104;-64
2022/07/02 07:09:12;;;;;;;9.27;2.30;;;;;;;16.19;91.63;102073.03;5054097;28;20025;-63
2022/07/02 07:11:37;;;;;;;6.60;2.20;;;;;;;16.25;89.35;102062.41;5054132;28;20032;-63
2022/07/02 07:14:02;;;;;;;7.25;2.10;;;;;;;16.35;91.94;102068.59;5053818;28;20029;-63
2022/07/02 07:16:28;;;;;;;5.38;2.20;;;;;;;16.39;88.27;102060.59;5053780;28;20025;-67
2022/07/02 07:19:00;;;;;;;5.97;2.10;;;;;;;16.46;88.24;102061.47;5054041;28;20021;-65
2022/07/02 07:21:25;;;;;;;6.75;2.45;;;;;;;16.56;89.54;102068.59;5050223;28;20063;-67
2022/07/02 07:23:50;;;;;;;10.30;2.50;;;;;;;16.65;87.68;102064.13;5053799;28;20060;-64
2022/07/02 07:26:16;;;;;;;4.80;2.05;;;;;;;16.76;86.69;102072.13;5053877;28;20376;-66
2022/07/02 07:28:41;;;;;;;8.98;2.25;;;;;;;16.86;84.17;102068.53;5053500;28;20056;-68
2022/07/02 07:31:06;;;;;;;6.85;2.00;;;;;;;16.94;86.11;102066.78;5053543;28;20107;-67
2022/07/02 07:33:32;;;;;;;6.43;2.10;;;;;;;17.02;86.10;102062.31;5053555;28;20028;-64
2022/07/02 07:35:57;;;;;;;8.25;2.10;;;;;;;17.09;87.78;102057.81;5052606;28;20072;-69
2022/07/02 07:38:23;;;;;;;8.25;2.22;;;;;;;17.19;89.53;102064.03;5053468;28;20033;-64
2022/07/02 07:40:48;;;;;;;9.38;2.15;;;;;;;17.26;86.85;102060.44;5053459;28;20130;-68
2022/07/02 07:43:14;;;;;;;7.30;2.00;;;;;;;17.31;82.96;102063.94;5053514;28;20025;-69
2022/07/02 07:45:39;;;;;;;7.18;2.10;;;;;;;17.44;85.42;102078.16;5053366;28;20108;-67
2022/07/02 07:48:05;;;;;;;10.27;2.50;;;;;;;17.53;85.86;102071.88;5053118;28;20025;-67
2022/07/02 07:50:30;;;;;;;6.53;2.17;;;;;;;17.67;88.15;102067.34;5053423;28;20032;-66
2022/07/02 07:52:56;;;;;;;9.55;2.50;;;;;;;17.85;89.30;102069.00;5053082;28;20522;-69
2022/07/02 07:55:21;;;;;;;6.50;2.53;;;;;;;17.89;80.03;102067.22;5053102;28;20025;-63
2022/07/02 07:57:46;;;;;;;6.80;2.30;;;;;;;18.03;85.25;102060.00;5051901;28;20045;-69
2022/07/02 08:00:12;;;;;;;10.18;2.30;;;;;;;18.05;81.22;102060.00;5051893;28;20044;-69
2022/07/02 08:02:37;;;;;;;9.75;2.30;;;;;;;18.01;83.37;102060.91;5052841;28;20028;-69
2022/07/02 08:05:03;;;;;;;9.35;2.25;;;;;;;18.06;83.07;102064.47;5052440;28;20028;-68
2022/07/02 08:07:28;;;;;;;9.70;2.80;;;;;;;18.18;83.87;102063.47;5053459;28;20474;-63
2022/07/02 08:09:54;;;;;;;8.73;2.40;;;;;;;18.22;83.01;102065.22;5052795;28;20372;-69
2022/07/02 08:12:22;;;;;;;11.68;2.50;;;;;;;18.24;82.27;102064.28;5052578;28;20053;-68
2022/07/02 08:14:48;;;;;;;7.70;2.50;;;;;;;18.32;79.85;102057.97;5053013;28;20035;-67
2022/07/02 08:17:14;;;;;;;10.90;2.47;;;;;;;18.48;83.68;102046.25;5052444;28;20025;-66
2022/07/02 08:19:39;;;;;;;8.65;2.30;;;;;;;18.56;81.52;102056.88;5051041;28;20033;-65
2022/07/02 08:22:04;;;;;;;11.35;2.50;;;;;;;18.56;82.25;102056.88;5048397;28;20035;-62
2022/07/02 08:24:30;;;;;;;10.15;2.40;;;;;;;18.57;80.49;102051.50;5052610;28;20021;-70
2022/07/02 08:26:55;;;;;;;10.80;2.40;;;;;;;18.60;78.82;102050.59;5052924;28;20032;-63
2022/07/02 08:29:21;;;;;;;8.73;2.20;;;;;;;18.61;79.76;102055.03;5052360;28;20529;-63
2022/07/02 08:31:46;;;;;;;8.73;2.40;;;;;;;18.65;78.44;102043.38;5052501;28;20112;-65
2022/07/02 08:34:11;;;;;;;8.55;2.55;;;;;;;18.71;77.33;102040.69;5052634;28;20104;-64
2022/07/02 08:36:37;;;;;;;8.15;2.45;;;;;;;18.85;80.21;102037.81;5046352;28;20044;-68
2022/07/02 08:39:02;;;;;;;9.65;2.50;;;;;;;18.94;80.16;102047.59;5052223;28;20111;-65
2022/07/02 08:41:28;;;;;;;7.95;2.50;;;;;;;19.10;78.39;102049.16;5052568;28;20071;-62
2022/07/02 08:43:56;;;;;;;7.75;2.53;;;;;;;19.19;79.54;102044.59;5052431;28;20074;-63
2022/07/02 08:46:23;;;;;;;9.27;2.50;;;;;;;19.32;80.45;102049.81;5052033;28;20024;-63
2022/07/02 08:48:50;;;;;;;9.98;2.40;;;;;;;19.42;82.94;102042.50;5052780;28;20052;-63
2022/07/02 08:51:19;;;;;;;10.25;2.40;;;;;;;19.59;79.29;102044.97;5051899;28;20037;-63
2022/07/02 08:53:46;;;;;;;11.23;2.50;;;;;;;19.64;74.44;102040.44;5051879;28;20041;-65
2022/07/02 08:56:13;;;;;;;9.25;2.40;;;;;;;19.61;73.69;102036.88;5052616;28;20037;-63
2022/07/02 08:58:39;;;;;;;10.38;2.40;;;;;;;19.80;77.58;102037.53;5052281;28;20116;-63
2022/07/02 09:01:06;;;;;;;8.63;2.30;;;;;;;19.98;78.37;102030.97;5052270;28;20025;-63
2022/07/02 09:03:32;;;;;;;9.57;2.60;;;;;;;19.96;74.67;102038.19;5052610;28;20060;-63
2022/07/02 09:05:58;;;;;;;10.27;2.60;;;;;;;19.94;74.12;102040.00;5051956;28;20053;-64
2022/07/02 09:08:24;;;;;;;10.70;2.70;;;;;;;19.89;79.35;102041.88;5052036;28;20108;-63
2022/07/02 09:10:52;;;;;;;11.57;2.70;;;;;;;19.84;75.14;102029.41;5052233;28;20025;-64
2022/07/02 09:13:19;;;;;;;7.20;2.42;;;;;;;19.95;77.58;102025.66;5051882;28;20017;-64
2022/07/02 09:15:45;;;;;;;10.55;2.60;;;;;;;20.01;75.35;102025.59;5051976;28;20057;-63
2022/07/02 09:18:11;;;;;;;12.20;2.67;;;;;;;20.08;75.69;102018.31;5052011;28;20025;-63
2022/07/02 09:20:37;;;;;;;8.88;2.53;;;;;;;20.11;75.59;102016.47;5051807;28;20021;-63
2022/07/02 09:23:07;;;;;;;9.73;2.53;;;;;;;20.20;76.77;102010.94;5052139;28;20028;-63
2022/07/02 09:25:33;;;;;;;14.43;3.13;;;;;;;20.35;77.38;102004.41;5052200;28;20108;-64
2022/07/02 09:28:00;;;;;;;10.70;2.75;;;;;;;20.47;76.00;102008.66;5051867;28;20060;-68
2022/07/02 09:30:29;;;;;;;11.32;2.67;;;;;;;20.59;73.24;102007.56;5051746;28;20021;-63
2022/07/02 09:33:28;;;;;;;11.65;2.70;;;;;;;20.63;77.40;102008.38;5052046;28;20020;-68
2022/07/02 09:35:40;;;;;;;11.73;2.80;;;;;;;20.73;78.30;102004.63;5051993;28;20044;-64
2022/07/02 09:38:10;;;;;;;11.23;2.60;;;;;;;20.86;73.40;102005.25;5052041;28;20025;-68
2022/07/02 09:40:37;;;;;;;9.10;2.50;;;;;;;21.05;73.19;101997.69;5051725;28;20064;-69
2022/07/02 09:43:03;;;;;;;11.25;2.50;;;;;;;21.28;73.68;101996.31;5051885;28;20052;-64
2022/07/02 09:45:28;;;;;;;8.90;2.30;;;;;;;21.22;64.94;102002.72;5051807;28;20057;-64
2022/07/02 09:47:54;;;;;;;11.02;2.30;;;;;;;21.09;67.68;101990.47;5051690;28;20054;-65
2022/07/02 09:50:21;;;;;;;10.27;2.40;;;;;;;21.10;68.38;101989.53;5051856;28;20053;-69
2022/07/02 09:52:54;;;;;;;9.52;2.50;;;;;;;21.38;68.22;101977.25;5051658;28;20132;-68
2022/07/02 09:55:25;;;;;;;7.63;2.50;;;;;;;21.52;63.74;101974.28;5051988;28;20021;-69
2022/07/02 09:57:56;;;;;;;10.38;2.50;;;;;;;21.59;67.01;101981.25;5051628;28;20032;-68
2022/07/02 10:00:24;;;;;;;11.32;2.60;;;;;;;21.77;67.75;101979.94;5055143;28;20119;-69
2022/07/02 10:02:55;;;;;;;7.38;2.50;;;;;;;21.89;62.54;101983.25;5055199;28;20531;-68
2022/07/02 10:05:26;;;;;;;8.63;2.40;;;;;;;22.02;62.63;101984.72;5055117;28;20025;-69
2022/07/02 10:07:57;;;;;;;11.45;2.75;;;;;;;22.22;61.58;101970.72;5055505;28;20032;-68
2022/07/02 10:12:59;;;;;;;8.48;2.50;;;;;;;23.90;50.54;101978.38;5052625;28;20033;-68
2022/07/02 10:15:29;;;;;;;10.18;2.50;;;;;;;23.73;52.86;101965.38;5050751;28;20017;-64
2022/07/02 10:17:56;;;;;;;8.25;2.33;;;;;;;23.70;47.08;101970.03;5051091;28;20495;-64
2022/07/02 10:20:23;;;;;;;9.77;2.30;;;;;;;25.26;49.12;101968.00;5053033;28;20074;-68
2022/07/02 10:22:49;;;;;;;10.52;2.30;;;;;;;27.89;38.02;101956.25;5054926;28;20024;-65
2022/07/02 10:25:16;;;;;;;10.40;2.45;;;;;;;28.37;33.35;101976.44;5053726;28;20488;-66
2022/07/02 10:27:42;;;;;;;9.15;2.40;;;;;;;26.82;35.15;101965.97;5055051;28;20091;-68
2022/07/02 10:30:09;;;;;;;9.85;2.45;;;;;;;24.75;38.64;101969.97;5054969;28;20090;-67
2022/07/02 10:32:55;;;;;;;6.35;2.20;;;;;;;23.64;42.96;101965.72;5054610;28;20021;-64
2022/07/02 10:35:23;;;;;;;10.38;2.55;;;;;;;23.48;45.29;101962.63;5051224;28;20032;-64
2022/07/02 10:37:56;;;;;;;12.27;2.40;;;;;;;23.50;44.90;101958.94;5051019;28;20028;-63
2022/07/02 10:40:21;;;;;;;12.00;2.40;;;;;;;25.55;40.16;101955.16;5050935;28;20361;-68
2022/07/02 10:42:49;;;;;;;8.63;2.30;;;;;;;27.98;36.18;101953.09;5054600;28;20024;-66
2022/07/02 10:45:20;;;;;;;5.30;2.08;;;;;;;28.60;32.89;101953.44;5054690;28;20029;-67
2022/07/02 10:48:00;;;;;;;6.20;2.10;;;;;;;28.09;35.75;101953.44;5050149;28;20022;-64
2022/07/02 10:50:40;;;;;;;6.15;2.10;;;;;;;28.73;33.42;101942.78;5048315;28;20021;-64
2022/07/02 10:53:12;;;;;;;7.00;1.98;;;;;;;28.16;32.97;101952.16;5047270;28;20037;-67
2022/07/02 10:55:40;;;;;;;6.45;2.00;;;;;;;25.97;33.63;101951.59;5048902;28;20057;-66
2022/07/02 10:58:17;;;;;;;5.93;2.05;;;;;;;25.09;37.43;101943.47;5050392;28;20029;-67
2022/07/02 11:00:43;;;;;;;8.25;2.03;;;;;;;25.08;37.44;101938.97;5048173;28;20033;-63
2022/07/02 11:03:15;;;;;;;7.05;2.25;;;;;;;26.88;36.57;101952.09;5054311;28;20405;-63
2022/07/02 11:05:57;;;;;;;6.30;1.90;;;;;;;27.74;35.04;101942.53;5049965;28;20029;-63
2022/07/02 11:08:43;;;;;;;7.10;2.10;;;;;;;28.17;35.13;101940.31;5051669;28;20112;-65
2022/07/02 11:11:42;;;;;;;8.48;2.00;;;;;;;29.52;32.53;101938.38;5053779;28;20044;-63
2022/07/02 11:14:10;;;;;;;4.50;1.80;;;;;;;29.29;28.11;101940.59;5053480;28;20460;-64
2022/07/02 11:16:38;;;;;;;6.97;2.45;;;;;;;30.07;29.65;101953.28;5053732;28;20063;-64
2022/07/02 11:19:18;;;;;;;7.00;1.90;;;;;;;28.66;30.64;101944.13;5053855;28;20037;-63